NJE783Q EGKB-LPPT
Flight info
| Callsign | NJE783Q |
|---|---|
| Flight time | 2h 29m |
| Altitude | 43000 |
| Route | DET M604 LYD DCT BIDVA DCT IBNID/N0461F410 M195 LORKU DCT POZOF DCT BALDA DCT ABUPI DCT XAMAX |
| Aircraft | C68A/M-SBDE2E3FGHJ1M3RWXY/LB2 |
Departure
| Time | 2026-05-07 16:17 |
|---|---|
| Airport | London Biggin Hill Airport (EGKB) |
Arrival
| Time | 2026-05-07 18:46 |
|---|---|
| Airport | Lisbon Humberto Delgado Airport (LPPT) |
| Time | Latitude | Longitude | Altitude | Speed | Heading |
|---|---|---|---|---|---|
| 2026-05-07 15:58 | 51.33330 | 0.03080 | 547 ft | 0 kts | 216° |
| 2026-05-07 16:12 | 51.33323 | 0.03076 | 548 ft | 3 kts | 193° |
| 2026-05-07 16:12 | 51.33308 | 0.03106 | 548 ft | 5 kts | 95° |
| 2026-05-07 16:12 | 51.33338 | 0.03162 | 546 ft | 8 kts | 32° |
| 2026-05-07 16:13 | 51.33353 | 0.03175 | 546 ft | 4 kts | 30° |
| 2026-05-07 16:13 | 51.33373 | 0.03206 | 544 ft | 0 kts | 53° |
| 2026-05-07 16:13 | 51.33378 | 0.03229 | 544 ft | 6 kts | 79° |
| 2026-05-07 16:14 | 51.33397 | 0.03314 | 542 ft | 11 kts | 37° |
| 2026-05-07 16:14 | 51.33484 | 0.03384 | 538 ft | 17 kts | 26° |
| 2026-05-07 16:14 | 51.33575 | 0.03454 | 534 ft | 9 kts | 26° |
| 2026-05-07 16:14 | 51.33651 | 0.03513 | 530 ft | 16 kts | 27° |
| 2026-05-07 16:15 | 51.33766 | 0.03601 | 525 ft | 14 kts | 26° |
| 2026-05-07 16:15 | 51.33835 | 0.03664 | 521 ft | 8 kts | 52° |
| 2026-05-07 16:15 | 51.33833 | 0.03759 | 520 ft | 8 kts | 116° |
| 2026-05-07 16:15 | 51.33818 | 0.03785 | 520 ft | 2 kts | 146° |
| 2026-05-07 16:16 | 51.33809 | 0.03787 | 520 ft | 1 kts | 182° |
| 2026-05-07 16:16 | 51.33801 | 0.03782 | 521 ft | 0 kts | 206° |
| 2026-05-07 16:16 | 51.33771 | 0.03758 | 522 ft | 31 kts | 205° |
| 2026-05-07 16:16 | 51.33493 | 0.03547 | 536 ft | 99 kts | 205° |
| 2026-05-07 16:17 | 51.32662 | 0.02872 | 921 ft | 150 kts | 204° |
| 2026-05-07 16:17 | 51.31747 | 0.02046 | 2191 ft | 158 kts | 210° |
| 2026-05-07 16:17 | 51.30577 | 0.00231 | 2602 ft | 199 kts | 245° |
| 2026-05-07 16:17 | 51.30434 | -0.01879 | 2655 ft | 190 kts | 283° |
| 2026-05-07 16:18 | 51.30829 | -0.03147 | 2594 ft | 194 kts | 314° |
| 2026-05-07 16:18 | 51.32029 | -0.03924 | 2517 ft | 191 kts | 5° |
| 2026-05-07 16:18 | 51.33309 | -0.03344 | 2436 ft | 192 kts | 26° |
| 2026-05-07 16:18 | 51.34257 | -0.01925 | 2409 ft | 188 kts | 61° |
| 2026-05-07 16:19 | 51.34539 | 0.00098 | 2412 ft | 189 kts | 99° |
| 2026-05-07 16:19 | 51.33973 | 0.01989 | 2413 ft | 191 kts | 128° |
| 2026-05-07 16:19 | 51.33260 | 0.03748 | 2400 ft | 190 kts | 107° |
| 2026-05-07 16:19 | 51.33088 | 0.05829 | 2488 ft | 188 kts | 94° |
| 2026-05-07 16:20 | 51.32952 | 0.07930 | 2498 ft | 191 kts | 96° |
| 2026-05-07 16:20 | 51.32853 | 0.10073 | 2511 ft | 191 kts | 92° |
| 2026-05-07 16:20 | 51.32789 | 0.12191 | 2507 ft | 191 kts | 93° |
| 2026-05-07 16:20 | 51.32716 | 0.14283 | 2505 ft | 191 kts | 92° |
| 2026-05-07 16:21 | 51.32637 | 0.16560 | 2510 ft | 216 kts | 93° |
| 2026-05-07 16:21 | 51.32553 | 0.18978 | 2507 ft | 222 kts | 92° |
| 2026-05-07 16:21 | 51.32465 | 0.21478 | 2507 ft | 225 kts | 93° |
| 2026-05-07 16:21 | 51.32374 | 0.23947 | 2503 ft | 225 kts | 93° |
| 2026-05-07 16:22 | 51.32289 | 0.26447 | 2502 ft | 225 kts | 93° |
| 2026-05-07 16:22 | 51.32194 | 0.28969 | 2501 ft | 225 kts | 93° |
| 2026-05-07 16:22 | 51.32105 | 0.31470 | 2317 ft | 225 kts | 93° |
| 2026-05-07 16:22 | 51.32016 | 0.33967 | 2311 ft | 225 kts | 93° |
| 2026-05-07 16:23 | 51.31914 | 0.36464 | 2316 ft | 224 kts | 96° |
| 2026-05-07 16:23 | 51.31739 | 0.38876 | 2632 ft | 218 kts | 96° |
| 2026-05-07 16:23 | 51.31591 | 0.41350 | 3098 ft | 225 kts | 95° |
| 2026-05-07 16:23 | 51.31432 | 0.43893 | 3561 ft | 229 kts | 96° |
| 2026-05-07 16:24 | 51.31270 | 0.46420 | 3904 ft | 237 kts | 96° |
| 2026-05-07 16:24 | 51.31097 | 0.49069 | 3893 ft | 237 kts | 96° |
| 2026-05-07 16:24 | 51.30919 | 0.51809 | 4098 ft | 264 kts | 96° |
| 2026-05-07 16:24 | 51.30726 | 0.54720 | 5710 ft | 262 kts | 97° |
| 2026-05-07 16:25 | 51.30230 | 0.57551 | 7405 ft | 267 kts | 115° |
| 2026-05-07 16:25 | 51.29226 | 0.60117 | 8949 ft | 277 kts | 131° |
| 2026-05-07 16:25 | 51.27788 | 0.62173 | 10481 ft | 289 kts | 147° |
| 2026-05-07 16:25 | 51.25960 | 0.63884 | 11708 ft | 312 kts | 152° |
| 2026-05-07 16:26 | 51.24071 | 0.65600 | 13466 ft | 317 kts | 151° |
| 2026-05-07 16:26 | 51.22135 | 0.67403 | 14969 ft | 326 kts | 151° |
| 2026-05-07 16:26 | 51.20131 | 0.69271 | 16424 ft | 335 kts | 151° |
| 2026-05-07 16:26 | 51.18093 | 0.71161 | 17815 ft | 344 kts | 152° |
| 2026-05-07 16:27 | 51.16014 | 0.73079 | 18968 ft | 352 kts | 152° |
| 2026-05-07 16:27 | 51.13858 | 0.75068 | 20038 ft | 359 kts | 153° |
| 2026-05-07 16:27 | 51.11523 | 0.76504 | 21137 ft | 362 kts | 167° |
| 2026-05-07 16:27 | 51.09033 | 0.77153 | 22122 ft | 365 kts | 179° |
| 2026-05-07 16:28 | 51.06478 | 0.76964 | 23107 ft | 368 kts | 191° |
| 2026-05-07 16:28 | 51.04025 | 0.75947 | 23983 ft | 371 kts | 202° |
| 2026-05-07 16:28 | 51.01698 | 0.74091 | 24814 ft | 373 kts | 214° |
| 2026-05-07 16:28 | 50.99691 | 0.71533 | 25619 ft | 375 kts | 226° |
| 2026-05-07 16:29 | 50.98039 | 0.68306 | 26418 ft | 378 kts | 238° |
| 2026-05-07 16:29 | 50.96852 | 0.64584 | 27196 ft | 381 kts | 250° |
| 2026-05-07 16:29 | 50.96151 | 0.60489 | 27959 ft | 386 kts | 258° |
| 2026-05-07 16:29 | 50.95561 | 0.56277 | 28713 ft | 390 kts | 256° |
| 2026-05-07 16:30 | 50.94574 | 0.52284 | 29324 ft | 395 kts | 244° |
| 2026-05-07 16:30 | 50.93196 | 0.48476 | 30058 ft | 400 kts | 239° |
| 2026-05-07 16:30 | 50.91732 | 0.44699 | 30675 ft | 404 kts | 240° |
| 2026-05-07 16:30 | 50.90377 | 0.40762 | 31288 ft | 407 kts | 244° |
| 2026-05-07 16:31 | 50.89154 | 0.36708 | 31875 ft | 411 kts | 245° |
| 2026-05-07 16:31 | 50.87851 | 0.32628 | 32443 ft | 415 kts | 243° |
| 2026-05-07 16:31 | 50.86464 | 0.28599 | 33003 ft | 419 kts | 242° |
| 2026-05-07 16:31 | 50.85085 | 0.24508 | 33688 ft | 418 kts | 243° |
| 2026-05-07 16:32 | 50.83761 | 0.20431 | 34376 ft | 416 kts | 243° |
| 2026-05-07 16:32 | 50.82425 | 0.16370 | 34889 ft | 417 kts | 243° |
| 2026-05-07 16:32 | 50.81070 | 0.12332 | 35413 ft | 418 kts | 242° |
| 2026-05-07 16:32 | 50.79703 | 0.08245 | 35931 ft | 418 kts | 243° |
| 2026-05-07 16:33 | 50.78344 | 0.04156 | 36435 ft | 419 kts | 243° |
| 2026-05-07 16:33 | 50.76979 | 0.00064 | 36930 ft | 420 kts | 242° |
| 2026-05-07 16:33 | 50.75620 | -0.03992 | 37420 ft | 420 kts | 242° |
| 2026-05-07 16:33 | 50.74252 | -0.08069 | 37891 ft | 421 kts | 242° |
| 2026-05-07 16:34 | 50.72878 | -0.12162 | 38362 ft | 422 kts | 242° |
| 2026-05-07 16:34 | 50.71494 | -0.16275 | 38794 ft | 422 kts | 242° |
| 2026-05-07 16:34 | 50.70113 | -0.20378 | 39145 ft | 423 kts | 242° |
| 2026-05-07 16:34 | 50.68730 | -0.24476 | 39507 ft | 423 kts | 242° |
| 2026-05-07 16:35 | 50.67366 | -0.28511 | 39851 ft | 423 kts | 242° |
| 2026-05-07 16:35 | 50.65981 | -0.32604 | 40194 ft | 423 kts | 242° |
| 2026-05-07 16:35 | 50.64580 | -0.36733 | 40529 ft | 423 kts | 242° |
| 2026-05-07 16:35 | 50.63207 | -0.40780 | 40850 ft | 423 kts | 242° |
| 2026-05-07 16:36 | 50.61805 | -0.44896 | 41174 ft | 423 kts | 242° |
| 2026-05-07 16:36 | 50.60423 | -0.48956 | 41484 ft | 423 kts | 242° |
| 2026-05-07 16:36 | 50.59024 | -0.53054 | 41802 ft | 423 kts | 242° |
| 2026-05-07 16:36 | 50.57623 | -0.57152 | 42104 ft | 423 kts | 242° |
| 2026-05-07 16:37 | 50.56244 | -0.61182 | 42395 ft | 423 kts | 242° |
| 2026-05-07 16:37 | 50.54837 | -0.65281 | 42683 ft | 423 kts | 242° |
| 2026-05-07 16:37 | 50.53449 | -0.69326 | 42947 ft | 424 kts | 242° |
| 2026-05-07 16:38 | 50.50611 | -0.77569 | 43041 ft | 435 kts | 242° |
| 2026-05-07 16:38 | 50.47673 | -0.86074 | 43050 ft | 446 kts | 241° |
| 2026-05-07 16:39 | 50.44708 | -0.94626 | 43052 ft | 448 kts | 241° |
| 2026-05-07 16:39 | 50.41716 | -1.03228 | 43060 ft | 448 kts | 241° |
| 2026-05-07 16:40 | 50.38725 | -1.11799 | 43049 ft | 447 kts | 241° |
| 2026-05-07 16:40 | 50.35745 | -1.20309 | 43047 ft | 447 kts | 241° |
| 2026-05-07 16:41 | 50.32753 | -1.28826 | 43048 ft | 446 kts | 241° |
| 2026-05-07 16:41 | 50.29742 | -1.37371 | 43046 ft | 446 kts | 241° |
| 2026-05-07 16:42 | 50.26755 | -1.45817 | 43046 ft | 448 kts | 241° |
| 2026-05-07 16:42 | 50.23720 | -1.54371 | 43049 ft | 449 kts | 241° |
| 2026-05-07 16:43 | 50.20679 | -1.62914 | 43040 ft | 449 kts | 241° |
| 2026-05-07 16:43 | 50.17637 | -1.71427 | 43040 ft | 449 kts | 241° |
| 2026-05-07 16:44 | 50.14595 | -1.79915 | 43040 ft | 449 kts | 241° |
| 2026-05-07 16:44 | 50.11560 | -1.88353 | 43034 ft | 448 kts | 241° |
| 2026-05-07 16:45 | 50.08501 | -1.96832 | 43035 ft | 447 kts | 240° |
| 2026-05-07 16:45 | 50.05455 | -2.05250 | 43034 ft | 447 kts | 240° |
| 2026-05-07 16:46 | 50.02399 | -2.13666 | 43026 ft | 446 kts | 240° |
| 2026-05-07 16:46 | 49.99344 | -2.22053 | 43023 ft | 448 kts | 240° |
| 2026-05-07 16:47 | 49.96199 | -2.30455 | 43020 ft | 450 kts | 236° |
| 2026-05-07 16:47 | 49.91898 | -2.37500 | 43021 ft | 452 kts | 218° |
| 2026-05-07 16:48 | 49.86427 | -2.42290 | 43030 ft | 453 kts | 205° |
| 2026-05-07 16:48 | 49.80693 | -2.46290 | 43020 ft | 451 kts | 205° |
| 2026-05-07 16:49 | 49.74977 | -2.50269 | 43019 ft | 450 kts | 205° |
| 2026-05-07 16:49 | 49.69307 | -2.54207 | 43017 ft | 450 kts | 205° |
| 2026-05-07 16:50 | 49.63551 | -2.58195 | 43001 ft | 453 kts | 205° |
| 2026-05-07 16:50 | 49.57792 | -2.62173 | 43002 ft | 453 kts | 205° |
| 2026-05-07 16:51 | 49.52053 | -2.66126 | 43001 ft | 452 kts | 205° |
| 2026-05-07 16:51 | 49.46331 | -2.70058 | 43003 ft | 451 kts | 205° |
| 2026-05-07 16:52 | 49.40624 | -2.73970 | 42992 ft | 450 kts | 205° |
| 2026-05-07 16:52 | 49.35815 | -2.77260 | 42992 ft | 452 kts | 205° |
| 2026-05-07 16:53 | 49.30080 | -2.81173 | 42992 ft | 454 kts | 205° |
| 2026-05-07 16:53 | 49.24314 | -2.85097 | 42993 ft | 453 kts | 205° |
| 2026-05-07 16:54 | 49.18558 | -2.89003 | 42988 ft | 451 kts | 205° |
| 2026-05-07 16:54 | 49.12814 | -2.92892 | 42992 ft | 451 kts | 205° |
| 2026-05-07 16:55 | 49.07069 | -2.96771 | 42988 ft | 452 kts | 205° |
| 2026-05-07 16:55 | 49.01312 | -3.00649 | 42989 ft | 453 kts | 205° |
| 2026-05-07 16:56 | 48.95540 | -3.04528 | 42976 ft | 453 kts | 205° |
| 2026-05-07 16:56 | 48.86875 | -3.10331 | 42973 ft | 455 kts | 205° |
| 2026-05-07 16:57 | 48.81054 | -3.14218 | 42976 ft | 455 kts | 205° |
| 2026-05-07 16:57 | 48.75284 | -3.18061 | 42972 ft | 453 kts | 205° |
| 2026-05-07 16:58 | 48.69507 | -3.21898 | 42977 ft | 452 kts | 205° |
| 2026-05-07 16:58 | 48.63729 | -3.25727 | 42969 ft | 453 kts | 205° |
| 2026-05-07 16:59 | 48.57958 | -3.29540 | 42967 ft | 454 kts | 205° |
| 2026-05-07 16:59 | 48.52158 | -3.33365 | 42971 ft | 455 kts | 205° |
| 2026-05-07 17:00 | 48.46386 | -3.37161 | 42973 ft | 455 kts | 205° |
| 2026-05-07 17:00 | 48.40560 | -3.40983 | 42970 ft | 454 kts | 205° |
| 2026-05-07 17:01 | 48.34805 | -3.44749 | 42974 ft | 452 kts | 205° |
| 2026-05-07 17:01 | 48.29030 | -3.48517 | 42971 ft | 452 kts | 205° |
| 2026-05-07 17:02 | 48.23222 | -3.52299 | 42969 ft | 453 kts | 205° |
| 2026-05-07 17:02 | 48.17428 | -3.56063 | 42971 ft | 454 kts | 205° |
| 2026-05-07 17:03 | 48.11627 | -3.59822 | 42972 ft | 454 kts | 205° |
| 2026-05-07 17:03 | 48.05849 | -3.63555 | 42977 ft | 455 kts | 205° |
| 2026-05-07 17:04 | 48.00020 | -3.67315 | 42978 ft | 455 kts | 204° |
| 2026-05-07 17:04 | 47.94174 | -3.71074 | 42979 ft | 456 kts | 204° |
| 2026-05-07 17:05 | 47.88376 | -3.74795 | 42984 ft | 454 kts | 204° |
| 2026-05-07 17:05 | 47.82560 | -3.78517 | 42978 ft | 453 kts | 204° |
| 2026-05-07 17:06 | 47.76793 | -3.82198 | 42980 ft | 452 kts | 204° |
| 2026-05-07 17:06 | 47.71024 | -3.85872 | 42979 ft | 452 kts | 204° |
| 2026-05-07 17:07 | 47.65209 | -3.89567 | 42982 ft | 454 kts | 204° |
| 2026-05-07 17:07 | 47.59389 | -3.93255 | 42984 ft | 455 kts | 204° |
| 2026-05-07 17:08 | 47.53575 | -3.96931 | 42981 ft | 454 kts | 204° |
| 2026-05-07 17:08 | 47.47768 | -4.00595 | 42980 ft | 453 kts | 204° |
| 2026-05-07 17:09 | 47.41943 | -4.04260 | 42978 ft | 452 kts | 204° |
| 2026-05-07 17:09 | 47.36171 | -4.07883 | 42978 ft | 451 kts | 204° |
| 2026-05-07 17:10 | 47.30384 | -4.11507 | 42976 ft | 452 kts | 204° |
| 2026-05-07 17:10 | 47.24598 | -4.15121 | 42976 ft | 454 kts | 204° |
| 2026-05-07 17:11 | 47.18768 | -4.18754 | 42975 ft | 455 kts | 204° |
| 2026-05-07 17:11 | 47.12917 | -4.22391 | 42975 ft | 455 kts | 204° |
| 2026-05-07 17:12 | 47.07115 | -4.25991 | 42978 ft | 454 kts | 204° |
| 2026-05-07 17:12 | 47.01211 | -4.29288 | 42975 ft | 453 kts | 202° |
| 2026-05-07 17:13 | 46.95281 | -4.32557 | 42977 ft | 453 kts | 202° |
| 2026-05-07 17:13 | 46.89390 | -4.35776 | 42971 ft | 452 kts | 202° |
| 2026-05-07 17:14 | 46.83482 | -4.39005 | 42972 ft | 453 kts | 202° |
| 2026-05-07 17:14 | 46.77578 | -4.42222 | 42975 ft | 454 kts | 202° |
| 2026-05-07 17:15 | 46.71644 | -4.45446 | 42974 ft | 455 kts | 202° |
| 2026-05-07 17:15 | 46.65729 | -4.48654 | 42974 ft | 455 kts | 202° |
| 2026-05-07 17:16 | 46.59807 | -4.51859 | 42972 ft | 454 kts | 202° |
| 2026-05-07 17:16 | 46.53888 | -4.55055 | 42970 ft | 453 kts | 202° |
| 2026-05-07 17:17 | 46.47955 | -4.58250 | 42966 ft | 452 kts | 202° |
| 2026-05-07 17:17 | 46.42045 | -4.61425 | 42968 ft | 451 kts | 202° |
| 2026-05-07 17:18 | 46.36178 | -4.64569 | 42961 ft | 453 kts | 202° |
| 2026-05-07 17:18 | 46.30226 | -4.67752 | 42961 ft | 456 kts | 202° |
| 2026-05-07 17:19 | 46.24282 | -4.70924 | 42962 ft | 455 kts | 202° |
| 2026-05-07 17:19 | 46.18333 | -4.74091 | 42957 ft | 454 kts | 202° |
| 2026-05-07 17:20 | 46.12420 | -4.77233 | 42960 ft | 453 kts | 202° |
| 2026-05-07 17:20 | 46.06485 | -4.80377 | 42956 ft | 452 kts | 202° |
| 2026-05-07 17:21 | 46.00592 | -4.83492 | 42951 ft | 453 kts | 202° |
| 2026-05-07 17:21 | 45.94679 | -4.86611 | 42962 ft | 454 kts | 202° |
| 2026-05-07 17:22 | 45.88729 | -4.89742 | 42970 ft | 455 kts | 202° |
| 2026-05-07 17:22 | 45.82798 | -4.92856 | 42964 ft | 456 kts | 202° |
| 2026-05-07 17:23 | 45.76819 | -4.95989 | 42964 ft | 454 kts | 202° |
| 2026-05-07 17:23 | 45.70887 | -4.99090 | 42961 ft | 453 kts | 202° |
| 2026-05-07 17:24 | 45.64999 | -5.02161 | 42957 ft | 452 kts | 202° |
| 2026-05-07 17:24 | 45.59076 | -5.05243 | 42958 ft | 453 kts | 202° |
| 2026-05-07 17:25 | 45.54097 | -5.07827 | 42952 ft | 454 kts | 202° |
| 2026-05-07 17:25 | 45.48148 | -5.10910 | 42951 ft | 455 kts | 202° |
| 2026-05-07 17:26 | 45.42196 | -5.13987 | 42945 ft | 455 kts | 202° |
| 2026-05-07 17:26 | 45.36282 | -5.17038 | 42942 ft | 453 kts | 202° |
| 2026-05-07 17:27 | 45.30347 | -5.20094 | 42935 ft | 452 kts | 202° |
| 2026-05-07 17:27 | 45.24442 | -5.23127 | 42931 ft | 451 kts | 202° |
| 2026-05-07 17:28 | 45.18515 | -5.26164 | 42930 ft | 452 kts | 202° |
| 2026-05-07 17:28 | 45.12588 | -5.29194 | 42924 ft | 453 kts | 202° |
| 2026-05-07 17:29 | 45.06667 | -5.32214 | 42928 ft | 454 kts | 202° |
| 2026-05-07 17:29 | 45.00716 | -5.35243 | 42928 ft | 454 kts | 202° |
| 2026-05-07 17:30 | 44.94760 | -5.38269 | 42919 ft | 453 kts | 201° |
| 2026-05-07 17:30 | 44.88824 | -5.41278 | 42919 ft | 452 kts | 201° |
| 2026-05-07 17:31 | 44.82922 | -5.44262 | 42916 ft | 450 kts | 202° |
| 2026-05-07 17:31 | 44.77015 | -5.47243 | 42914 ft | 449 kts | 202° |
| 2026-05-07 17:32 | 44.71121 | -5.50210 | 42909 ft | 449 kts | 202° |
| 2026-05-07 17:32 | 44.65264 | -5.53152 | 42907 ft | 449 kts | 202° |
| 2026-05-07 17:33 | 44.59428 | -5.56244 | 42913 ft | 448 kts | 206° |
| 2026-05-07 17:33 | 44.53723 | -5.59807 | 42907 ft | 449 kts | 206° |
| 2026-05-07 17:34 | 44.47972 | -5.63339 | 42906 ft | 449 kts | 206° |
| 2026-05-07 17:34 | 44.42278 | -5.66857 | 42897 ft | 450 kts | 206° |
| 2026-05-07 17:35 | 44.36554 | -5.70373 | 42904 ft | 449 kts | 206° |
| 2026-05-07 17:35 | 44.30822 | -5.73892 | 42897 ft | 448 kts | 206° |
| 2026-05-07 17:36 | 44.25091 | -5.77400 | 42898 ft | 447 kts | 206° |
| 2026-05-07 17:36 | 44.19395 | -5.80881 | 42895 ft | 447 kts | 206° |
| 2026-05-07 17:37 | 44.13695 | -5.84356 | 42889 ft | 446 kts | 206° |
| 2026-05-07 17:37 | 44.08000 | -5.87823 | 42894 ft | 448 kts | 206° |
| 2026-05-07 17:38 | 44.02274 | -5.91300 | 42888 ft | 450 kts | 206° |
| 2026-05-07 17:38 | 43.96525 | -5.94782 | 42888 ft | 448 kts | 206° |
| 2026-05-07 17:39 | 43.90848 | -5.98215 | 42887 ft | 447 kts | 206° |
| 2026-05-07 17:39 | 43.85137 | -6.01660 | 42879 ft | 447 kts | 206° |
| 2026-05-07 17:40 | 43.79422 | -6.05101 | 42881 ft | 448 kts | 206° |
| 2026-05-07 17:40 | 43.73672 | -6.08555 | 42879 ft | 449 kts | 206° |
| 2026-05-07 17:41 | 43.67940 | -6.11992 | 42877 ft | 450 kts | 206° |
| 2026-05-07 17:41 | 43.62185 | -6.15435 | 42875 ft | 451 kts | 206° |
| 2026-05-07 17:42 | 43.56430 | -6.18871 | 42877 ft | 449 kts | 206° |
| 2026-05-07 17:42 | 43.50708 | -6.22281 | 42879 ft | 447 kts | 206° |
| 2026-05-07 17:43 | 43.45018 | -6.25664 | 42876 ft | 446 kts | 206° |
| 2026-05-07 17:43 | 43.39299 | -6.29057 | 42879 ft | 447 kts | 206° |
| 2026-05-07 17:44 | 43.33551 | -6.32463 | 42875 ft | 449 kts | 206° |
| 2026-05-07 17:44 | 43.27833 | -6.35839 | 42875 ft | 449 kts | 206° |
| 2026-05-07 17:45 | 43.22090 | -6.39225 | 42874 ft | 447 kts | 206° |
| 2026-05-07 17:45 | 43.16393 | -6.42581 | 42869 ft | 447 kts | 206° |
| 2026-05-07 17:46 | 43.10687 | -6.45929 | 42871 ft | 447 kts | 206° |
| 2026-05-07 17:46 | 43.04958 | -6.49287 | 42875 ft | 447 kts | 206° |
| 2026-05-07 17:47 | 42.99271 | -6.52614 | 42874 ft | 447 kts | 206° |
| 2026-05-07 17:47 | 42.93549 | -6.55955 | 42866 ft | 447 kts | 206° |
| 2026-05-07 17:48 | 42.87830 | -6.59285 | 42875 ft | 447 kts | 206° |
| 2026-05-07 17:48 | 42.82121 | -6.62604 | 42865 ft | 446 kts | 206° |
| 2026-05-07 17:49 | 42.76402 | -6.65923 | 42868 ft | 445 kts | 206° |
| 2026-05-07 17:49 | 42.70732 | -6.69205 | 42864 ft | 444 kts | 206° |
| 2026-05-07 17:50 | 42.65024 | -6.72504 | 42869 ft | 444 kts | 206° |
| 2026-05-07 17:50 | 42.59341 | -6.75780 | 42862 ft | 444 kts | 206° |
| 2026-05-07 17:51 | 42.53632 | -6.79068 | 42861 ft | 444 kts | 206° |
| 2026-05-07 17:51 | 42.47952 | -6.82331 | 42863 ft | 444 kts | 206° |
| 2026-05-07 17:52 | 42.42302 | -6.85571 | 42868 ft | 442 kts | 206° |
| 2026-05-07 17:52 | 42.36661 | -6.88796 | 42868 ft | 439 kts | 206° |
| 2026-05-07 17:53 | 42.31003 | -6.92029 | 42864 ft | 439 kts | 206° |
| 2026-05-07 17:53 | 42.25387 | -6.95228 | 42865 ft | 440 kts | 206° |
| 2026-05-07 17:54 | 42.19722 | -6.98452 | 42873 ft | 440 kts | 206° |
| 2026-05-07 17:54 | 42.14075 | -7.01657 | 42870 ft | 439 kts | 206° |
| 2026-05-07 17:55 | 42.08481 | -7.04828 | 42869 ft | 437 kts | 206° |
| 2026-05-07 17:55 | 42.02884 | -7.07993 | 42865 ft | 437 kts | 206° |
| 2026-05-07 17:56 | 41.97242 | -7.11177 | 42873 ft | 437 kts | 206° |
| 2026-05-07 17:56 | 41.91625 | -7.14342 | 42866 ft | 437 kts | 206° |
| 2026-05-07 17:57 | 41.86974 | -7.16957 | 42871 ft | 437 kts | 206° |
| 2026-05-07 17:57 | 41.80426 | -7.20633 | 42868 ft | 436 kts | 206° |
| 2026-05-07 17:58 | 41.74854 | -7.23836 | 42858 ft | 433 kts | 210° |
| 2026-05-07 17:58 | 41.69684 | -7.27856 | 42864 ft | 433 kts | 212° |
| 2026-05-07 17:59 | 41.64423 | -7.31911 | 42868 ft | 434 kts | 213° |
| 2026-05-07 17:59 | 41.59187 | -7.35987 | 42861 ft | 434 kts | 212° |
| 2026-05-07 18:00 | 41.54847 | -7.39339 | 42865 ft | 433 kts | 213° |
| 2026-05-07 18:00 | 41.49623 | -7.43380 | 42869 ft | 434 kts | 212° |
| 2026-05-07 18:01 | 41.44384 | -7.47420 | 42875 ft | 434 kts | 212° |
| 2026-05-07 18:01 | 41.39166 | -7.51437 | 42870 ft | 433 kts | 213° |
| 2026-05-07 18:02 | 41.31370 | -7.57425 | 42876 ft | 432 kts | 212° |
| 2026-05-07 18:03 | 41.26134 | -7.61439 | 42878 ft | 430 kts | 212° |
| 2026-05-07 18:03 | 41.20947 | -7.65405 | 42874 ft | 432 kts | 212° |
| 2026-05-07 18:04 | 41.15732 | -7.69387 | 42878 ft | 428 kts | 213° |
| 2026-05-07 18:04 | 41.10644 | -7.73262 | 42709 ft | 421 kts | 213° |
| 2026-05-07 18:04 | 41.08106 | -7.75197 | 42590 ft | 419 kts | 213° |
| 2026-05-07 18:05 | 41.05557 | -7.77135 | 42271 ft | 420 kts | 213° |
| 2026-05-07 18:05 | 41.03055 | -7.79035 | 42140 ft | 414 kts | 213° |
| 2026-05-07 18:05 | 41.00539 | -7.80942 | 42002 ft | 413 kts | 213° |
| 2026-05-07 18:05 | 40.98035 | -7.82843 | 41867 ft | 414 kts | 213° |
| 2026-05-07 18:06 | 40.95561 | -7.84720 | 41745 ft | 414 kts | 213° |
| 2026-05-07 18:06 | 40.93040 | -7.86626 | 41620 ft | 413 kts | 213° |
| 2026-05-07 18:06 | 40.90566 | -7.88496 | 41490 ft | 412 kts | 214° |
| 2026-05-07 18:06 | 40.88082 | -7.90373 | 41362 ft | 410 kts | 214° |
| 2026-05-07 18:07 | 40.85583 | -7.92262 | 41233 ft | 410 kts | 214° |
| 2026-05-07 18:07 | 40.83116 | -7.94123 | 41110 ft | 411 kts | 214° |
| 2026-05-07 18:07 | 40.80620 | -7.96006 | 40984 ft | 410 kts | 214° |
| 2026-05-07 18:07 | 40.78140 | -7.97869 | 40862 ft | 409 kts | 214° |
| 2026-05-07 18:08 | 40.75679 | -7.99721 | 40742 ft | 409 kts | 214° |
| 2026-05-07 18:08 | 40.73213 | -8.01578 | 40624 ft | 408 kts | 214° |
| 2026-05-07 18:08 | 40.70742 | -8.03433 | 40503 ft | 407 kts | 214° |
| 2026-05-07 18:08 | 40.68270 | -8.05287 | 40380 ft | 407 kts | 214° |
| 2026-05-07 18:09 | 40.65839 | -8.07110 | 40262 ft | 407 kts | 214° |
| 2026-05-07 18:09 | 40.63377 | -8.08954 | 40143 ft | 405 kts | 214° |
| 2026-05-07 18:09 | 40.60917 | -8.10795 | 40031 ft | 405 kts | 214° |
| 2026-05-07 18:09 | 40.58464 | -8.12632 | 39905 ft | 404 kts | 214° |
| 2026-05-07 18:10 | 40.56035 | -8.14446 | 39790 ft | 403 kts | 214° |
| 2026-05-07 18:10 | 40.53604 | -8.16260 | 39671 ft | 402 kts | 214° |
| 2026-05-07 18:10 | 40.51161 | -8.18084 | 39384 ft | 405 kts | 215° |
| 2026-05-07 18:10 | 40.48700 | -8.19919 | 38859 ft | 403 kts | 215° |
| 2026-05-07 18:11 | 40.46269 | -8.21725 | 38282 ft | 399 kts | 215° |
| 2026-05-07 18:11 | 40.44690 | -8.22900 | 37928 ft | 397 kts | 215° |
| 2026-05-07 18:11 | 40.41451 | -8.25317 | 37220 ft | 404 kts | 215° |
| 2026-05-07 18:11 | 40.38997 | -8.27139 | 36700 ft | 407 kts | 214° |
| 2026-05-07 18:12 | 40.36535 | -8.28962 | 36156 ft | 409 kts | 214° |
| 2026-05-07 18:12 | 40.34048 | -8.30806 | 35625 ft | 411 kts | 214° |
| 2026-05-07 18:12 | 40.31541 | -8.32668 | 35080 ft | 414 kts | 214° |
| 2026-05-07 18:12 | 40.29047 | -8.34513 | 34532 ft | 416 kts | 214° |
| 2026-05-07 18:13 | 40.26516 | -8.36384 | 33983 ft | 418 kts | 213° |
| 2026-05-07 18:13 | 40.23970 | -8.38266 | 33392 ft | 420 kts | 213° |
| 2026-05-07 18:13 | 40.21409 | -8.40156 | 32834 ft | 422 kts | 213° |
| 2026-05-07 18:13 | 40.18888 | -8.42015 | 32285 ft | 416 kts | 213° |
| 2026-05-07 18:14 | 40.16371 | -8.43867 | 31740 ft | 413 kts | 213° |
| 2026-05-07 18:14 | 40.13863 | -8.45719 | 31192 ft | 414 kts | 213° |
| 2026-05-07 18:14 | 40.11343 | -8.47574 | 30654 ft | 412 kts | 212° |
| 2026-05-07 18:14 | 40.08855 | -8.49402 | 30101 ft | 410 kts | 212° |
| 2026-05-07 18:15 | 40.06321 | -8.51075 | 29531 ft | 410 kts | 206° |
| 2026-05-07 18:15 | 40.03633 | -8.52268 | 28988 ft | 409 kts | 199° |
| 2026-05-07 18:15 | 40.00833 | -8.52968 | 28604 ft | 407 kts | 191° |
| 2026-05-07 18:15 | 39.97999 | -8.53168 | 28269 ft | 411 kts | 184° |
| 2026-05-07 18:16 | 39.95135 | -8.52949 | 27932 ft | 410 kts | 180° |
| 2026-05-07 18:16 | 39.92320 | -8.52711 | 27596 ft | 407 kts | 181° |
| 2026-05-07 18:16 | 39.89468 | -8.52484 | 27253 ft | 404 kts | 181° |
| 2026-05-07 18:16 | 39.86708 | -8.52253 | 26919 ft | 392 kts | 181° |
| 2026-05-07 18:17 | 39.83997 | -8.52021 | 26595 ft | 388 kts | 181° |
| 2026-05-07 18:17 | 39.81382 | -8.51805 | 26277 ft | 370 kts | 181° |
| 2026-05-07 18:17 | 39.78866 | -8.51754 | 25975 ft | 350 kts | 188° |
| 2026-05-07 18:17 | 39.76514 | -8.52178 | 25687 ft | 339 kts | 196° |
| 2026-05-07 18:18 | 39.74262 | -8.53029 | 25408 ft | 336 kts | 203° |
| 2026-05-07 18:18 | 39.72127 | -8.54294 | 25132 ft | 334 kts | 211° |
| 2026-05-07 18:18 | 39.70154 | -8.55840 | 24860 ft | 333 kts | 214° |
| 2026-05-07 18:18 | 39.68172 | -8.57400 | 24585 ft | 332 kts | 213° |
| 2026-05-07 18:19 | 39.66196 | -8.58943 | 24315 ft | 331 kts | 213° |
| 2026-05-07 18:19 | 39.64209 | -8.60507 | 24038 ft | 330 kts | 213° |
| 2026-05-07 18:19 | 39.62252 | -8.62050 | 23765 ft | 335 kts | 213° |
| 2026-05-07 18:19 | 39.60239 | -8.63633 | 23482 ft | 336 kts | 213° |
| 2026-05-07 18:20 | 39.58246 | -8.65195 | 23173 ft | 336 kts | 212° |
| 2026-05-07 18:20 | 39.56255 | -8.66756 | 22890 ft | 336 kts | 212° |
| 2026-05-07 18:20 | 39.54240 | -8.68336 | 22605 ft | 336 kts | 212° |
| 2026-05-07 18:20 | 39.52256 | -8.69893 | 22325 ft | 336 kts | 212° |
| 2026-05-07 18:21 | 39.50257 | -8.71457 | 22060 ft | 335 kts | 212° |
| 2026-05-07 18:21 | 39.48255 | -8.73023 | 21777 ft | 334 kts | 212° |
| 2026-05-07 18:21 | 39.46292 | -8.74557 | 21504 ft | 333 kts | 212° |
| 2026-05-07 18:21 | 39.44303 | -8.76113 | 21227 ft | 332 kts | 212° |
| 2026-05-07 18:22 | 39.42331 | -8.77652 | 20955 ft | 334 kts | 211° |
| 2026-05-07 18:22 | 39.41007 | -8.78703 | 20768 ft | 337 kts | 213° |
| 2026-05-07 18:22 | 39.38613 | -8.81376 | 20397 ft | 342 kts | 226° |
| 2026-05-07 18:22 | 39.37045 | -8.83706 | 20114 ft | 343 kts | 228° |
| 2026-05-07 18:23 | 39.35493 | -8.85987 | 19835 ft | 342 kts | 227° |
| 2026-05-07 18:23 | 39.33901 | -8.88310 | 19551 ft | 342 kts | 227° |
| 2026-05-07 18:23 | 39.32344 | -8.90598 | 19271 ft | 342 kts | 227° |
| 2026-05-07 18:23 | 39.30777 | -8.92900 | 18990 ft | 341 kts | 227° |
| 2026-05-07 18:24 | 39.29195 | -8.95220 | 18708 ft | 342 kts | 227° |
| 2026-05-07 18:24 | 39.27623 | -8.97520 | 18427 ft | 345 kts | 226° |
| 2026-05-07 18:24 | 39.26024 | -8.99863 | 18128 ft | 345 kts | 226° |
| 2026-05-07 18:24 | 39.24437 | -9.02183 | 17819 ft | 343 kts | 226° |
| 2026-05-07 18:25 | 39.22878 | -9.04460 | 17531 ft | 341 kts | 226° |
| 2026-05-07 18:25 | 39.21303 | -9.06765 | 17249 ft | 339 kts | 226° |
| 2026-05-07 18:25 | 39.19751 | -9.09028 | 16975 ft | 338 kts | 226° |
| 2026-05-07 18:25 | 39.18193 | -9.11300 | 16695 ft | 337 kts | 226° |
| 2026-05-07 18:26 | 39.16630 | -9.13577 | 16407 ft | 335 kts | 226° |
| 2026-05-07 18:26 | 39.15088 | -9.15825 | 16140 ft | 333 kts | 226° |
| 2026-05-07 18:26 | 39.13568 | -9.18033 | 15866 ft | 332 kts | 226° |
| 2026-05-07 18:26 | 39.12039 | -9.20262 | 15589 ft | 331 kts | 226° |
| 2026-05-07 18:27 | 39.10509 | -9.22482 | 15315 ft | 330 kts | 226° |
| 2026-05-07 18:27 | 39.08992 | -9.24687 | 15043 ft | 329 kts | 226° |
| 2026-05-07 18:27 | 39.07472 | -9.26892 | 14775 ft | 327 kts | 226° |
| 2026-05-07 18:27 | 39.06468 | -9.28348 | 14591 ft | 327 kts | 226° |
| 2026-05-07 18:28 | 39.04454 | -9.31267 | 14232 ft | 326 kts | 226° |
| 2026-05-07 18:28 | 39.02964 | -9.33425 | 13968 ft | 326 kts | 226° |
| 2026-05-07 18:28 | 39.01444 | -9.35625 | 13697 ft | 326 kts | 226° |
| 2026-05-07 18:28 | 38.99949 | -9.37786 | 13413 ft | 326 kts | 226° |
| 2026-05-07 18:29 | 38.98441 | -9.39966 | 13136 ft | 325 kts | 226° |
| 2026-05-07 18:29 | 38.96932 | -9.42145 | 12860 ft | 325 kts | 226° |
| 2026-05-07 18:29 | 38.95434 | -9.44309 | 12597 ft | 324 kts | 226° |
| 2026-05-07 18:29 | 38.93931 | -9.46473 | 12330 ft | 323 kts | 226° |
| 2026-05-07 18:30 | 38.92451 | -9.48609 | 12066 ft | 322 kts | 226° |
| 2026-05-07 18:30 | 38.90938 | -9.50759 | 11797 ft | 320 kts | 224° |
| 2026-05-07 18:30 | 38.89241 | -9.52521 | 11532 ft | 317 kts | 212° |
| 2026-05-07 18:30 | 38.87290 | -9.53841 | 11269 ft | 320 kts | 201° |
| 2026-05-07 18:31 | 38.85130 | -9.54655 | 11001 ft | 323 kts | 191° |
| 2026-05-07 18:31 | 38.82886 | -9.54903 | 10730 ft | 324 kts | 181° |
| 2026-05-07 18:31 | 38.80659 | -9.54930 | 10464 ft | 314 kts | 181° |
| 2026-05-07 18:31 | 38.78564 | -9.54984 | 10222 ft | 289 kts | 181° |
| 2026-05-07 18:32 | 38.76620 | -9.55028 | 9984 ft | 269 kts | 181° |
| 2026-05-07 18:32 | 38.74810 | -9.55067 | 9756 ft | 254 kts | 181° |
| 2026-05-07 18:32 | 38.73070 | -9.55105 | 9531 ft | 241 kts | 181° |
| 2026-05-07 18:32 | 38.71429 | -9.55139 | 9328 ft | 236 kts | 181° |
| 2026-05-07 18:33 | 38.69793 | -9.55177 | 9135 ft | 236 kts | 181° |
| 2026-05-07 18:33 | 38.68131 | -9.55211 | 8939 ft | 237 kts | 181° |
| 2026-05-07 18:33 | 38.66566 | -9.55247 | 8755 ft | 237 kts | 181° |
| 2026-05-07 18:33 | 38.64930 | -9.55281 | 8565 ft | 238 kts | 181° |
| 2026-05-07 18:34 | 38.63271 | -9.55319 | 8367 ft | 237 kts | 182° |
| 2026-05-07 18:34 | 38.61629 | -9.55353 | 8168 ft | 236 kts | 182° |
| 2026-05-07 18:34 | 38.59982 | -9.55389 | 7978 ft | 236 kts | 182° |
| 2026-05-07 18:34 | 38.58352 | -9.55151 | 7939 ft | 234 kts | 168° |
| 2026-05-07 18:35 | 38.56755 | -9.54701 | 7935 ft | 236 kts | 171° |
| 2026-05-07 18:35 | 38.55145 | -9.54325 | 7938 ft | 237 kts | 171° |
| 2026-05-07 18:35 | 38.53530 | -9.53921 | 7937 ft | 237 kts | 170° |
| 2026-05-07 18:35 | 38.51915 | -9.53507 | 7936 ft | 237 kts | 170° |
| 2026-05-07 18:36 | 38.50830 | -9.53231 | 7936 ft | 237 kts | 169° |
| 2026-05-07 18:36 | 38.48818 | -9.52142 | 7933 ft | 241 kts | 149° |
| 2026-05-07 18:36 | 38.47430 | -9.50933 | 7935 ft | 241 kts | 148° |
| 2026-05-07 18:36 | 38.46497 | -9.50125 | 7929 ft | 241 kts | 144° |
| 2026-05-07 18:37 | 38.45562 | -9.48343 | 7931 ft | 249 kts | 107° |
| 2026-05-07 18:37 | 38.45693 | -9.46154 | 7929 ft | 256 kts | 69° |
| 2026-05-07 18:37 | 38.46710 | -9.44287 | 7826 ft | 262 kts | 51° |
| 2026-05-07 18:37 | 38.47905 | -9.42539 | 7525 ft | 260 kts | 49° |
| 2026-05-07 18:38 | 38.49067 | -9.40808 | 7205 ft | 255 kts | 52° |
| 2026-05-07 18:38 | 38.50139 | -9.38995 | 6847 ft | 252 kts | 55° |
| 2026-05-07 18:38 | 38.51149 | -9.37252 | 6460 ft | 241 kts | 54° |
| 2026-05-07 18:38 | 38.52150 | -9.35579 | 6089 ft | 231 kts | 53° |
| 2026-05-07 18:39 | 38.53114 | -9.33966 | 5724 ft | 224 kts | 53° |
| 2026-05-07 18:39 | 38.54032 | -9.32390 | 5351 ft | 219 kts | 53° |
| 2026-05-07 18:39 | 38.54914 | -9.30838 | 4990 ft | 216 kts | 53° |
| 2026-05-07 18:39 | 38.55785 | -9.29273 | 4667 ft | 211 kts | 53° |
| 2026-05-07 18:40 | 38.56600 | -9.27767 | 4499 ft | 206 kts | 53° |
| 2026-05-07 18:40 | 38.57406 | -9.26260 | 4358 ft | 203 kts | 53° |
| 2026-05-07 18:40 | 38.58200 | -9.24772 | 4284 ft | 200 kts | 51° |
| 2026-05-07 18:40 | 38.59268 | -9.23702 | 4076 ft | 195 kts | 21° |
| 2026-05-07 18:41 | 38.60505 | -9.23038 | 3823 ft | 192 kts | 20° |
| 2026-05-07 18:41 | 38.61719 | -9.22345 | 3562 ft | 186 kts | 19° |
| 2026-05-07 18:41 | 38.62829 | -9.21766 | 3337 ft | 160 kts | 17° |
| 2026-05-07 18:41 | 38.63796 | -9.21254 | 3121 ft | 141 kts | 17° |
| 2026-05-07 18:42 | 38.64613 | -9.20813 | 2950 ft | 118 kts | 15° |
| 2026-05-07 18:42 | 38.65383 | -9.20419 | 2777 ft | 122 kts | 16° |
| 2026-05-07 18:42 | 38.66159 | -9.19983 | 2609 ft | 120 kts | 15° |
| 2026-05-07 18:42 | 38.66933 | -9.19592 | 2447 ft | 121 kts | 15° |
| 2026-05-07 18:43 | 38.67703 | -9.19149 | 2286 ft | 122 kts | 17° |
| 2026-05-07 18:43 | 38.68490 | -9.18755 | 2115 ft | 119 kts | 13° |
| 2026-05-07 18:43 | 38.69252 | -9.18343 | 1952 ft | 120 kts | 18° |
| 2026-05-07 18:43 | 38.70028 | -9.17925 | 1793 ft | 119 kts | 13° |
| 2026-05-07 18:44 | 38.70788 | -9.17532 | 1646 ft | 121 kts | 14° |
| 2026-05-07 18:44 | 38.71557 | -9.17087 | 1488 ft | 120 kts | 18° |
| 2026-05-07 18:44 | 38.72326 | -9.16665 | 1356 ft | 119 kts | 14° |
| 2026-05-07 18:44 | 38.73082 | -9.16280 | 1207 ft | 117 kts | 15° |
| 2026-05-07 18:45 | 38.73854 | -9.15862 | 991 ft | 119 kts | 17° |
| 2026-05-07 18:45 | 38.74615 | -9.15466 | 819 ft | 118 kts | 17° |
| 2026-05-07 18:45 | 38.75380 | -9.15048 | 669 ft | 121 kts | 15° |
| 2026-05-07 18:45 | 38.76164 | -9.14634 | 512 ft | 121 kts | 15° |
| 2026-05-07 18:46 | 38.76935 | -9.14230 | 354 ft | 109 kts | 16° |
| 2026-05-07 18:46 | 38.77507 | -9.13928 | 349 ft | 69 kts | 23° |
| 2026-05-07 18:46 | 38.77873 | -9.13731 | 347 ft | 45 kts | 24° |
| 2026-05-07 18:46 | 38.78144 | -9.13586 | 351 ft | 40 kts | 22° |
| 2026-05-07 18:47 | 38.78335 | -9.13406 | 347 ft | 31 kts | 47° |
| 2026-05-07 18:47 | 38.78368 | -9.13283 | 353 ft | 11 kts | 131° |
| 2026-05-07 18:47 | 38.78307 | -9.13272 | 346 ft | 11 kts | 196° |
| 2026-05-07 18:47 | 38.78249 | -9.13303 | 347 ft | 9 kts | 204° |
| 2026-05-07 18:48 | 38.78176 | -9.13341 | 348 ft | 13 kts | 203° |
| 2026-05-07 18:48 | 38.78096 | -9.13384 | 350 ft | 9 kts | 200° |
| 2026-05-07 18:48 | 38.78020 | -9.13414 | 347 ft | 14 kts | 180° |
| 2026-05-07 18:48 | 38.77916 | -9.13387 | 349 ft | 14 kts | 168° |
| 2026-05-07 18:49 | 38.77839 | -9.13367 | 346 ft | 8 kts | 168° |
| 2026-05-07 18:49 | 38.77821 | -9.13328 | 346 ft | 8 kts | 77° |
| 2026-05-07 18:49 | 38.77831 | -9.13274 | 348 ft | 0 kts | 77° |
| 2026-05-07 18:49 | 38.77832 | -9.13272 | 348 ft | 0 kts | 76° |